createdAt,value
2018-05-21T00:00:06.438Z,49.90
2018-05-21T00:02:34.701Z,50.30
2018-05-21T00:05:02.188Z,50.30
2018-05-21T00:07:29.743Z,50.50
2018-05-21T00:09:57.324Z,50.80
2018-05-21T00:12:25.600Z,51.20
2018-05-21T00:14:53.880Z,51.40
2018-05-21T00:17:22.119Z,51.60
2018-05-21T00:19:49.611Z,51.60
2018-05-21T00:22:17.855Z,51.90
2018-05-21T00:24:45.352Z,51.80
2018-05-21T00:27:13.628Z,52.80
2018-05-21T00:29:41.903Z,53.20
2018-05-21T00:32:10.184Z,53.40
2018-05-21T00:34:38.451Z,53.60
2018-05-21T00:37:06.699Z,53.50
2018-05-21T00:39:34.195Z,53.40
2018-05-21T00:42:02.437Z,54.00
2018-05-21T00:44:29.895Z,54.00
2018-05-21T00:46:57.384Z,53.90
2018-05-21T00:49:25.680Z,54.70
2018-05-21T00:51:53.935Z,54.70
2018-05-21T00:54:22.179Z,55.10
2018-05-21T00:56:49.672Z,54.50
2018-05-21T00:59:17.227Z,54.70
2018-05-21T01:01:44.729Z,55.90
2018-05-21T01:04:12.211Z,55.90
2018-05-21T01:06:39.735Z,54.80
2018-05-21T01:09:07.996Z,54.70
2018-05-21T01:11:36.265Z,54.80
2018-05-21T01:14:03.756Z,54.70
2018-05-21T01:16:31.308Z,54.40
2018-05-21T01:18:59.543Z,55.90
2018-05-21T01:21:27.044Z,55.80
2018-05-21T01:23:55.319Z,56.30
2018-05-21T01:26:23.569Z,56.60
2018-05-21T01:28:51.061Z,56.50
2018-05-21T01:31:19.331Z,56.80
2018-05-21T01:33:47.575Z,56.70
2018-05-21T01:36:15.163Z,56.60
2018-05-21T01:38:43.414Z,55.90
2018-05-21T01:41:10.901Z,55.90
2018-05-21T01:43:39.168Z,56.40
2018-05-21T01:46:06.669Z,56.40
2018-05-21T01:48:34.143Z,56.40
2018-05-21T01:51:01.617Z,56.60
2018-05-21T01:53:29.115Z,56.70
2018-05-21T01:55:57.354Z,56.40
2018-05-21T01:58:24.948Z,56.30
2018-05-21T02:00:53.281Z,56.30
2018-05-21T02:03:20.786Z,56.10
2018-05-21T02:05:49.038Z,56.90
2018-05-21T02:08:16.737Z,56.80
2018-05-21T02:10:44.126Z,56.50
2018-05-21T02:13:11.652Z,56.50
2018-05-21T02:15:39.903Z,56.90
2018-05-21T02:18:07.475Z,56.80
2018-05-21T02:20:36.458Z,56.50
2018-05-21T02:23:03.940Z,56.40
2018-05-21T02:25:32.187Z,57.10
2018-05-21T02:27:59.673Z,56.40
2018-05-21T02:30:27.154Z,56.50
2018-05-21T02:32:55.060Z,56.50
2018-05-21T02:35:22.536Z,57.10
2018-05-21T02:37:50.874Z,57.30
2018-05-21T02:40:18.365Z,57.50
2018-05-21T02:42:45.963Z,57.70
2018-05-21T02:45:14.225Z,57.20
2018-05-21T02:47:43.232Z,57.50
2018-05-21T02:50:11.497Z,57.30
2018-05-21T02:52:39.749Z,57.70
2018-05-21T02:55:07.230Z,57.70
2018-05-21T02:57:34.725Z,58.00
2018-05-21T03:00:02.285Z,57.40
2018-05-21T03:02:29.843Z,57.20
2018-05-21T03:04:58.083Z,57.70
2018-05-21T03:07:25.587Z,57.60
2018-05-21T03:09:53.101Z,57.50
2018-05-21T03:12:20.596Z,57.30
2018-05-21T03:14:48.866Z,57.80
2018-05-21T03:17:17.111Z,57.90
2018-05-21T03:19:44.713Z,57.80
2018-05-21T03:22:12.987Z,58.30
2018-05-21T03:24:41.259Z,58.50
2018-05-21T03:27:09.538Z,58.40
2018-05-21T03:29:37.814Z,58.70
2018-05-21T03:32:06.095Z,58.00
2018-05-21T03:34:34.366Z,58.00
2018-05-21T03:37:02.643Z,58.10
2018-05-21T03:39:30.923Z,57.20
2018-05-21T03:41:59.207Z,57.30
2018-05-21T03:44:27.472Z,57.20
2018-05-21T03:46:55.748Z,56.80
2018-05-21T03:49:24.051Z,57.00
2018-05-21T03:51:52.307Z,56.70
2018-05-21T03:54:19.819Z,56.70
2018-05-21T03:56:47.327Z,56.40
2018-05-21T03:59:26.572Z,56.10
2018-05-21T04:02:06.920Z,56.10
2018-05-21T04:04:34.453Z,56.10
2018-05-21T04:07:02.795Z,56.10
2018-05-21T04:09:30.277Z,56.10
2018-05-21T04:11:57.823Z,55.90
2018-05-21T04:14:26.055Z,55.90
2018-05-21T04:16:53.548Z,55.90
2018-05-21T04:19:21.082Z,55.90
2018-05-21T04:21:48.564Z,55.90
2018-05-21T04:24:16.303Z,56.10
2018-05-21T04:26:43.880Z,56.00
2018-05-21T04:29:12.118Z,56.30
2018-05-21T04:31:39.615Z,56.30
2018-05-21T04:34:07.852Z,57.00
2018-05-21T04:36:35.383Z,56.30
2018-05-21T04:39:02.863Z,56.50
2018-05-21T04:41:30.365Z,57.20
2018-05-21T04:43:58.620Z,57.40
2018-05-21T04:46:26.118Z,56.70
2018-05-21T04:48:53.611Z,56.70
2018-05-21T04:51:21.095Z,56.80
2018-05-21T04:53:48.572Z,56.70
2018-05-21T04:56:16.872Z,57.20
2018-05-21T04:58:44.360Z,56.50
2018-05-21T05:01:11.872Z,56.50
2018-05-21T05:03:39.364Z,56.60
2018-05-21T05:06:06.856Z,56.50
2018-05-21T05:08:34.358Z,56.20
2018-05-21T05:11:02.610Z,56.30
2018-05-21T05:13:30.095Z,55.60
2018-05-21T05:15:58.347Z,55.40
2018-05-21T05:18:25.835Z,55.30
2018-05-21T05:20:54.113Z,54.90
2018-05-21T05:23:22.389Z,55.00
2018-05-21T05:25:50.636Z,54.80
2018-05-21T05:28:18.126Z,54.70
2018-05-21T05:30:46.400Z,54.50
2018-05-21T05:33:14.677Z,54.40
2018-05-21T05:35:43.442Z,54.00
2018-05-21T05:38:10.945Z,53.90
2018-05-21T05:40:38.422Z,53.80
2018-05-21T05:43:05.939Z,53.60
2018-05-21T05:45:34.218Z,52.90
2018-05-21T05:48:01.701Z,52.90
2018-05-21T05:50:29.266Z,52.40
2018-05-21T05:52:56.767Z,51.40
2018-05-21T05:55:24.265Z,50.40
2018-05-21T05:57:52.515Z,49.50
2018-05-21T06:00:19.990Z,49.40
2018-05-21T06:02:47.513Z,49.10
2018-05-21T06:05:15.005Z,49.60
2018-05-21T06:07:42.580Z,49.70
2018-05-21T06:10:10.941Z,49.60
2018-05-21T06:12:38.438Z,49.50
2018-05-21T06:15:05.925Z,49.40
2018-05-21T06:17:33.399Z,48.60
2018-05-21T06:20:00.898Z,48.40
2018-05-21T06:22:29.168Z,48.20
2018-05-21T06:24:56.647Z,48.10
2018-05-21T06:27:24.143Z,48.10
2018-05-21T06:29:51.643Z,48.20
2018-05-21T06:32:19.200Z,47.80
2018-05-21T06:34:46.681Z,47.70
2018-05-21T06:37:14.958Z,46.20
2018-05-21T06:39:43.211Z,46.10
2018-05-21T06:42:10.824Z,46.10
2018-05-21T06:44:38.319Z,46.40
2018-05-21T06:47:05.792Z,46.70
2018-05-21T06:49:33.368Z,46.30
2018-05-21T06:52:01.630Z,46.10
2018-05-21T06:54:29.905Z,44.80
2018-05-21T06:56:57.379Z,44.70
2018-05-21T06:59:24.874Z,45.00
2018-05-21T07:01:52.351Z,44.10
2018-05-21T07:04:19.828Z,44.60
2018-05-21T07:06:48.113Z,44.40
2018-05-21T07:09:15.611Z,44.20
2018-05-21T07:11:43.167Z,43.10
2018-05-21T07:14:11.628Z,43.00
2018-05-21T07:16:39.870Z,42.60
2018-05-21T07:19:07.396Z,42.50
2018-05-21T07:21:34.895Z,42.60
2018-05-21T07:24:02.413Z,41.70
2018-05-21T07:26:29.915Z,41.00
2018-05-21T07:28:57.487Z,40.30
2018-05-21T07:31:25.008Z,40.70
2018-05-21T07:33:52.494Z,40.20
2018-05-21T07:36:19.998Z,39.90
2018-05-21T07:38:48.359Z,38.00
2018-05-21T07:41:15.979Z,38.00
2018-05-21T07:43:43.468Z,38.40
2018-05-21T07:46:11.061Z,38.20
2018-05-21T07:48:39.405Z,35.20
2018-05-21T07:51:07.015Z,35.10
2018-05-21T07:53:34.511Z,33.80
2018-05-21T07:56:02.028Z,32.10
2018-05-21T07:58:30.281Z,28.80
2018-05-21T08:00:57.782Z,28.70
2018-05-21T08:03:25.255Z,29.20
2018-05-21T08:05:52.831Z,28.80
2018-05-21T08:08:20.376Z,29.60
2018-05-21T08:10:48.009Z,30.60
2018-05-21T08:13:16.256Z,32.10
2018-05-21T08:15:45.275Z,33.10
2018-05-21T08:18:13.690Z,33.00
2018-05-21T08:20:41.226Z,32.90
2018-05-21T08:23:09.550Z,33.80
2018-05-21T08:25:37.100Z,34.50
2018-05-21T08:28:04.636Z,33.40
2018-05-21T08:30:32.163Z,33.30
2018-05-21T08:32:59.643Z,33.70
2018-05-21T08:35:28.001Z,33.50
2018-05-21T08:37:55.485Z,33.50
2018-05-21T08:40:23.792Z,32.90
2018-05-21T08:42:51.281Z,32.90
2018-05-21T08:45:18.834Z,32.50
2018-05-21T08:47:46.395Z,32.20
2018-05-21T08:50:13.880Z,32.60
2018-05-21T08:52:41.358Z,32.20
2018-05-21T08:55:09.658Z,31.20
2018-05-21T08:57:37.970Z,31.30
2018-05-21T09:00:05.451Z,30.60
2018-05-21T09:02:32.959Z,31.50
2018-05-21T09:05:00.469Z,32.40
2018-05-21T09:07:28.056Z,31.80
2018-05-21T09:09:56.321Z,31.70
2018-05-21T09:12:24.646Z,32.00
2018-05-21T09:14:52.865Z,31.80
2018-05-21T09:17:20.356Z,31.70
2018-05-21T09:19:47.839Z,31.80
2018-05-21T09:22:15.360Z,30.00
2018-05-21T09:24:43.636Z,29.70
2018-05-21T09:27:11.920Z,29.80
2018-05-21T09:29:40.193Z,30.00
2018-05-21T09:32:07.691Z,30.00
2018-05-21T09:34:35.171Z,29.90
2018-05-21T09:37:02.664Z,30.30
2018-05-21T09:39:30.964Z,29.50
2018-05-21T09:41:58.485Z,29.50
2018-05-21T09:44:25.988Z,29.50
2018-05-21T09:46:53.491Z,28.90
2018-05-21T09:49:21.010Z,29.20
2018-05-21T09:51:48.506Z,29.70
2018-05-21T09:54:15.997Z,29.40
2018-05-21T09:56:43.470Z,29.90
2018-05-21T09:59:11.736Z,29.60
2018-05-21T10:01:40.001Z,28.90
2018-05-21T10:04:07.478Z,29.20
2018-05-21T10:06:35.732Z,29.10
2018-05-21T10:09:03.231Z,29.00
2018-05-21T10:11:31.500Z,29.90
2018-05-21T10:13:59.951Z,30.00
2018-05-21T10:16:27.437Z,30.00
2018-05-21T10:18:54.952Z,29.70
2018-05-21T10:21:22.424Z,29.60
2018-05-21T10:23:55.724Z,29.10
2018-05-21T10:26:23.215Z,29.10
2018-05-21T10:28:51.472Z,29.90
2018-05-21T10:31:19.051Z,29.90
2018-05-21T10:33:47.321Z,31.00
2018-05-21T10:36:15.563Z,30.90
2018-05-21T10:38:43.056Z,30.80
2018-05-21T10:41:11.332Z,31.30
2018-05-21T10:43:38.819Z,31.20
2018-05-21T10:46:06.304Z,30.60
2018-05-21T10:48:33.820Z,31.00
2018-05-21T10:51:02.107Z,30.60
2018-05-21T10:53:30.370Z,30.10
2018-05-21T10:55:58.659Z,30.90
2018-05-21T10:58:26.930Z,30.70
2018-05-21T11:00:55.183Z,31.60
2018-05-21T11:03:22.893Z,30.90
2018-05-21T11:05:50.385Z,30.90
2018-05-21T11:08:17.899Z,31.10
2018-05-21T11:10:46.170Z,31.60
2018-05-21T11:13:14.419Z,31.20
2018-05-21T11:15:42.018Z,31.20
2018-05-21T11:18:10.272Z,31.30
2018-05-21T11:20:37.873Z,31.30
2018-05-21T11:23:05.401Z,30.60
2018-05-21T11:25:32.895Z,30.20
2018-05-21T11:28:00.514Z,30.10
2018-05-21T11:30:28.022Z,29.00
2018-05-21T11:32:55.509Z,28.80
2018-05-21T11:35:23.111Z,28.00
2018-05-21T11:37:51.394Z,27.00
2018-05-21T11:40:19.679Z,27.30
2018-05-21T11:42:47.183Z,27.30
2018-05-21T11:45:14.683Z,26.90
2018-05-21T11:47:42.978Z,26.20
2018-05-21T11:50:10.561Z,26.20
2018-05-21T11:52:38.106Z,26.70
2018-05-21T11:55:06.373Z,26.40
2018-05-21T11:57:33.970Z,26.40
2018-05-21T12:00:01.478Z,25.70
2018-05-21T12:02:28.977Z,26.10
2018-05-21T12:04:56.482Z,26.10
2018-05-21T12:07:23.971Z,25.90
2018-05-21T12:09:52.347Z,25.30
2018-05-21T12:12:20.609Z,25.50
2018-05-21T12:14:48.133Z,25.50
2018-05-21T12:17:15.632Z,25.50
2018-05-21T12:19:43.279Z,25.90
2018-05-21T12:22:11.784Z,26.80
2018-05-21T12:24:40.067Z,27.20
2018-05-21T12:27:08.431Z,27.70
2018-05-21T12:29:35.939Z,27.60
2018-05-21T12:32:03.463Z,27.30
2018-05-21T12:34:31.013Z,27.50
2018-05-21T12:36:59.302Z,26.40
2018-05-21T12:39:27.567Z,26.40
2018-05-21T12:41:55.097Z,26.40
2018-05-21T12:44:22.628Z,26.90
2018-05-21T12:46:50.117Z,26.80
2018-05-21T12:49:17.618Z,26.90
2018-05-21T12:51:45.899Z,27.40
2018-05-21T12:54:14.179Z,27.80
2018-05-21T12:56:42.437Z,27.30
2018-05-21T12:59:09.947Z,27.30
2018-05-21T13:01:37.443Z,27.10
2018-05-21T13:04:05.007Z,27.40
2018-05-21T13:06:32.519Z,27.20
2018-05-21T13:09:00.074Z,27.80
2018-05-21T13:11:28.325Z,26.90
2018-05-21T13:13:56.584Z,26.90
2018-05-21T13:16:24.863Z,27.10
2018-05-21T13:18:52.364Z,27.10
2018-05-21T13:21:19.849Z,27.10
2018-05-21T13:23:47.381Z,27.00
2018-05-21T13:26:15.653Z,26.20
2018-05-21T13:28:43.924Z,25.80
2018-05-21T13:31:12.236Z,25.70
2018-05-21T13:33:39.759Z,25.70
2018-05-21T13:36:08.034Z,26.00
2018-05-21T13:38:36.284Z,25.60
2018-05-21T13:41:03.829Z,25.60
2018-05-21T13:43:31.362Z,25.70
2018-05-21T13:45:58.904Z,25.60
2018-05-21T13:48:27.162Z,25.50
2018-05-21T13:50:54.652Z,25.50
2018-05-21T13:53:22.234Z,25.70
2018-05-21T13:55:49.708Z,24.90
2018-05-21T13:58:17.254Z,24.70
2018-05-21T14:00:44.939Z,25.00
2018-05-21T14:03:12.439Z,25.00
2018-05-21T14:05:40.740Z,24.70
2018-05-21T14:08:08.279Z,24.70
2018-05-21T14:10:36.604Z,24.90
2018-05-21T14:13:04.100Z,24.90
2018-05-21T14:15:31.607Z,24.90
2018-05-21T14:17:59.168Z,25.20
2018-05-21T14:20:26.675Z,25.00
2018-05-21T14:22:54.196Z,24.40
2018-05-21T14:25:21.808Z,23.70
2018-05-21T14:27:50.020Z,25.10
2018-05-21T14:30:17.524Z,25.10
2018-05-21T14:32:45.044Z,24.50
2018-05-21T14:35:12.532Z,24.50
2018-05-21T14:37:40.020Z,25.00
2018-05-21T14:40:07.512Z,25.00
2018-05-21T14:42:35.059Z,25.60
2018-05-21T14:45:03.351Z,24.30
2018-05-21T14:47:30.875Z,24.30
2018-05-21T14:49:58.375Z,23.70
2018-05-21T14:52:25.886Z,23.70
2018-05-21T14:54:54.222Z,24.50
2018-05-21T14:57:21.655Z,24.40
2018-05-21T14:59:49.153Z,24.70
2018-05-21T15:02:16.712Z,24.70
2018-05-21T15:04:44.230Z,25.00
2018-05-21T15:07:12.483Z,24.70
2018-05-21T15:09:40.015Z,24.60
2018-05-21T15:12:07.503Z,24.30
2018-05-21T15:14:34.979Z,23.40
2018-05-21T15:17:03.252Z,24.30
2018-05-21T15:19:31.576Z,24.50
2018-05-21T15:21:59.102Z,24.50
2018-05-21T15:24:27.371Z,24.90
2018-05-21T15:26:55.642Z,25.50
2018-05-21T15:29:23.176Z,25.40
2018-05-21T15:31:50.663Z,25.70
2018-05-21T15:34:19.053Z,26.00
2018-05-21T15:36:47.323Z,25.70
2018-05-21T15:39:15.598Z,25.80
2018-05-21T15:41:43.072Z,25.80
2018-05-21T15:44:11.339Z,25.60
2018-05-21T15:46:38.816Z,25.50
2018-05-21T15:49:07.073Z,25.70
2018-05-21T15:51:34.640Z,25.70
2018-05-21T15:54:02.977Z,26.20
2018-05-21T15:56:30.468Z,26.20
2018-05-21T15:58:58.032Z,26.30
2018-05-21T16:01:25.600Z,26.50
2018-05-21T16:03:53.889Z,25.50
2018-05-21T16:06:21.428Z,25.20
2018-05-21T16:08:49.009Z,25.40
2018-05-21T16:11:17.264Z,26.00
2018-05-21T16:13:44.745Z,25.90
2018-05-21T16:16:13.027Z,26.40
2018-05-21T16:18:40.539Z,26.30
2018-05-21T16:21:08.039Z,26.30
2018-05-21T16:23:36.289Z,25.30
2018-05-21T16:26:03.802Z,25.30
2018-05-21T16:28:31.347Z,26.30
2018-05-21T16:31:00.101Z,26.40
2018-05-21T16:33:27.784Z,26.40
2018-05-21T16:35:56.056Z,26.10
2018-05-21T16:38:23.576Z,26.00
2018-05-21T16:40:51.123Z,25.90
2018-05-21T16:43:18.598Z,26.30
2018-05-21T16:45:46.120Z,26.10
2018-05-21T16:48:13.611Z,25.80
2018-05-21T16:50:41.140Z,25.60
2018-05-21T16:53:09.405Z,25.30
2018-05-21T16:55:37.667Z,25.50
2018-05-21T16:58:05.932Z,25.70
2018-05-21T17:00:33.418Z,25.60
2018-05-21T17:03:01.650Z,25.90
2018-05-21T17:05:29.155Z,25.90
2018-05-21T17:07:57.442Z,25.70
2018-05-21T17:10:25.720Z,25.40
2018-05-21T17:12:53.986Z,25.50
2018-05-21T17:15:22.292Z,25.60
2018-05-21T17:17:49.873Z,25.60
2018-05-21T17:20:17.385Z,25.70
2018-05-21T17:22:45.651Z,26.20
2018-05-21T17:25:13.152Z,26.20
2018-05-21T17:27:40.715Z,25.90
2018-05-21T17:30:08.245Z,26.10
2018-05-21T17:32:37.308Z,26.60
2018-05-21T17:35:04.914Z,26.60
2018-05-21T17:37:32.471Z,26.10
2018-05-21T17:40:00.060Z,26.00
2018-05-21T17:42:27.637Z,26.30
2018-05-21T17:44:55.832Z,27.40
2018-05-21T17:47:23.323Z,27.40
2018-05-21T17:49:51.612Z,26.90
2018-05-21T17:52:19.876Z,26.80
2018-05-21T17:54:48.122Z,26.90
2018-05-21T17:57:15.783Z,26.80
2018-05-21T17:59:43.981Z,26.90
2018-05-21T18:02:11.465Z,26.90
2018-05-21T18:04:39.711Z,27.10
2018-05-21T18:07:07.196Z,27.10
2018-05-21T18:09:35.469Z,27.00
2018-05-21T18:12:03.751Z,27.20
2018-05-21T18:14:32.083Z,27.30
2018-05-21T18:17:00.507Z,27.30
2018-05-21T18:19:28.776Z,27.80
2018-05-21T18:21:57.043Z,28.00
2018-05-21T18:24:25.019Z,27.90
2018-05-21T18:26:52.588Z,27.90
2018-05-21T18:29:20.149Z,28.00
2018-05-21T18:31:47.648Z,28.30
2018-05-21T18:34:15.135Z,28.50
2018-05-21T18:36:42.674Z,28.60
2018-05-21T18:39:10.177Z,28.70
2018-05-21T18:41:38.463Z,28.90
2018-05-21T18:44:06.722Z,29.10
2018-05-21T18:46:34.251Z,29.00
2018-05-21T18:49:01.740Z,29.20
2018-05-21T18:51:29.243Z,29.20
2018-05-21T18:53:57.591Z,29.60
2018-05-21T18:56:25.748Z,29.90
2018-05-21T18:58:53.283Z,29.80
2018-05-21T19:01:20.847Z,30.00
2018-05-21T19:03:48.355Z,30.10
2018-05-21T19:06:15.951Z,30.20
2018-05-21T19:08:43.451Z,30.30
2018-05-21T19:11:10.966Z,30.40
2018-05-21T19:13:38.502Z,30.60
2018-05-21T19:18:38.947Z,31.00
2018-05-21T19:21:07.192Z,31.90
2018-05-21T19:23:34.687Z,31.50
2018-05-21T19:26:02.929Z,31.80
2018-05-21T19:28:30.568Z,31.80
2018-05-21T19:30:58.041Z,32.00
2018-05-21T19:33:25.572Z,32.00
2018-05-21T19:35:53.114Z,32.20
2018-05-21T19:38:21.392Z,32.50
2018-05-21T19:40:49.683Z,32.70
2018-05-21T19:43:17.244Z,32.60
2018-05-21T19:45:44.731Z,32.80
2018-05-21T19:48:12.231Z,33.00
2018-05-21T19:50:40.905Z,33.10
2018-05-21T19:53:08.431Z,34.00
2018-05-21T19:55:35.950Z,33.40
2018-05-21T19:58:04.272Z,33.80
2018-05-21T20:00:31.795Z,33.80
2018-05-21T20:03:00.163Z,34.00
2018-05-21T20:05:27.670Z,34.00
2018-05-21T20:07:55.179Z,33.60
2018-05-21T20:10:22.713Z,34.30
2018-05-21T20:12:50.199Z,33.90
2018-05-21T20:15:17.710Z,34.70
2018-05-21T20:17:45.175Z,34.80
2018-05-21T20:20:12.672Z,35.00
2018-05-21T20:22:40.161Z,35.60
2018-05-21T20:25:07.736Z,35.20
2018-05-21T20:27:35.393Z,35.30
2018-05-21T20:30:02.897Z,35.40
2018-05-21T20:32:30.386Z,35.60
2018-05-21T20:34:58.675Z,36.50
2018-05-21T20:37:26.154Z,36.10
2018-05-21T20:39:53.668Z,36.60
2018-05-21T20:42:21.155Z,36.90
2018-05-21T20:44:49.424Z,37.20
2018-05-21T20:47:17.699Z,37.40
2018-05-21T20:49:45.971Z,37.60
2018-05-21T20:52:14.251Z,37.70
2018-05-21T20:54:41.814Z,37.70
2018-05-21T20:57:10.064Z,37.90
2018-05-21T20:59:37.552Z,37.90
2018-05-21T21:02:05.851Z,38.50
2018-05-21T21:04:33.335Z,38.20
2018-05-21T21:07:00.841Z,38.40
2018-05-21T21:09:29.095Z,38.80
2018-05-21T21:11:56.575Z,38.30
2018-05-21T21:14:24.134Z,38.50
2018-05-21T21:16:51.695Z,39.40
2018-05-21T21:19:19.969Z,39.20
2018-05-21T21:21:47.456Z,39.00
2018-05-21T21:24:15.707Z,39.30
2018-05-21T21:26:43.225Z,39.30
2018-05-21T21:29:10.720Z,39.50
2018-05-21T21:31:38.242Z,39.70
2018-05-21T21:34:05.787Z,40.00
2018-05-21T21:36:33.295Z,40.10
2018-05-21T21:39:00.803Z,40.40
2018-05-21T21:41:28.301Z,40.60
2018-05-21T21:43:55.795Z,40.80
2018-05-21T21:46:24.063Z,41.40
2018-05-21T21:48:51.753Z,41.10
2018-05-21T21:51:19.247Z,41.40
2018-05-21T21:53:46.725Z,41.70
2018-05-21T21:56:14.228Z,41.90
2018-05-21T21:58:42.477Z,42.40
2018-05-21T22:01:09.966Z,42.30
2018-05-21T22:03:38.212Z,42.90
2018-05-21T22:06:05.706Z,42.80
2018-05-21T22:08:33.954Z,43.20
2018-05-21T22:11:02.260Z,43.40
2018-05-21T22:13:30.519Z,43.60
2018-05-21T22:15:58.005Z,43.60
2018-05-21T22:18:25.547Z,43.70
2018-05-21T22:20:53.793Z,44.00
2018-05-21T22:23:21.315Z,44.00
2018-05-21T22:25:48.854Z,44.20
2018-05-21T22:28:17.131Z,44.50
2018-05-21T22:30:45.412Z,44.70
2018-05-21T22:33:12.972Z,44.70
2018-05-21T22:35:41.249Z,45.10
2018-05-21T22:38:09.623Z,45.30
2018-05-21T22:40:37.913Z,45.40
2018-05-21T22:43:06.188Z,45.60
2018-05-21T22:45:34.459Z,45.80
2018-05-21T22:48:02.731Z,45.90
2018-05-21T22:50:31.120Z,46.10
2018-05-21T22:52:59.389Z,46.20
2018-05-21T22:55:27.660Z,46.30
2018-05-21T22:57:55.165Z,46.20
2018-05-21T23:00:22.640Z,46.20
2018-05-21T23:02:50.143Z,46.40
2018-05-21T23:05:18.423Z,46.20
2018-05-21T23:07:46.691Z,46.20
2018-05-21T23:10:14.186Z,46.20
2018-05-21T23:12:41.679Z,46.20
2018-05-21T23:15:09.164Z,46.10
2018-05-21T23:17:36.657Z,46.10
2018-05-21T23:20:04.140Z,46.20
2018-05-21T23:22:43.614Z,46.20
2018-05-21T23:25:11.871Z,46.50
2018-05-21T23:27:39.386Z,46.50
2018-05-21T23:30:07.635Z,47.00
2018-05-21T23:32:35.637Z,46.90
2018-05-21T23:35:03.908Z,47.10
2018-05-21T23:37:32.169Z,47.40
2018-05-21T23:39:59.766Z,47.40
2018-05-21T23:42:27.310Z,47.70
2018-05-21T23:44:54.782Z,48.00
2018-05-21T23:47:22.264Z,48.30
2018-05-21T23:49:49.775Z,48.30
2018-05-21T23:52:18.059Z,48.40
2018-05-21T23:54:46.341Z,48.40
2018-05-21T23:57:14.615Z,48.40
2018-05-21T23:59:42.889Z,48.20
